sensor_id;sensor_type;location;lat;lon;timestamp;pressure;altitude;pressure_sealevel;temperature;humidity
80837;BME280;70251;60.008;30.404;2024-03-02T00:01:30;102236.78;;;5.11;64.73
80837;BME280;70251;60.008;30.404;2024-03-02T00:03:56;102240.22;;;5.13;64.82
80837;BME280;70251;60.008;30.404;2024-03-02T00:06:21;102246.28;;;5.17;65.17
80837;BME280;70251;60.008;30.404;2024-03-02T00:08:47;102238.19;;;5.20;65.17
80837;BME280;70251;60.008;30.404;2024-03-02T00:11:12;102231.91;;;5.22;65.30
80837;BME280;70251;60.008;30.404;2024-03-02T00:13:40;102241.19;;;5.32;65.17
80837;BME280;70251;60.008;30.404;2024-03-02T00:18:50;102240.00;;;5.39;64.34
80837;BME280;70251;60.008;30.404;2024-03-02T00:21:16;102240.88;;;5.40;65.49
80837;BME280;70251;60.008;30.404;2024-03-02T00:23:45;102239.94;;;5.41;65.21
80837;BME280;70251;60.008;30.404;2024-03-02T00:26:11;102236.56;;;5.37;64.93
80837;BME280;70251;60.008;30.404;2024-03-02T00:28:39;102242.66;;;5.39;65.52
80837;BME280;70251;60.008;30.404;2024-03-02T00:31:09;102238.16;;;5.41;65.07
80837;BME280;70251;60.008;30.404;2024-03-02T00:33:48;102232.88;;;5.41;65.37
80837;BME280;70251;60.008;30.404;2024-03-02T00:36:26;102238.94;;;5.43;64.92
80837;BME280;70251;60.008;30.404;2024-03-02T00:38:54;102242.47;;;5.44;65.04
80837;BME280;70251;60.008;30.404;2024-03-02T00:41:32;102245.97;;;5.44;65.11
80837;BME280;70251;60.008;30.404;2024-03-02T00:44:11;102248.63;;;5.44;64.90
80837;BME280;70251;60.008;30.404;2024-03-02T00:46:38;102241.59;;;5.43;64.77
80837;BME280;70251;60.008;30.404;2024-03-02T00:49:19;102245.97;;;5.44;65.04
80837;BME280;70251;60.008;30.404;2024-03-02T00:51:46;102245.97;;;5.44;64.93
80837;BME280;70251;60.008;30.404;2024-03-02T00:54:14;102246.78;;;5.46;65.16
80837;BME280;70251;60.008;30.404;2024-03-02T00:56:41;102240.44;;;5.50;64.76
80837;BME280;70251;60.008;30.404;2024-03-02T00:59:07;102241.34;;;5.49;65.03
80837;BME280;70251;60.008;30.404;2024-03-02T01:01:33;102240.44;;;5.50;65.00
80837;BME280;70251;60.008;30.404;2024-03-02T01:04:00;102236.00;;;5.51;65.15
80837;BME280;70251;60.008;30.404;2024-03-02T01:06:25;102242.09;;;5.53;65.17
80837;BME280;70251;60.008;30.404;2024-03-02T01:08:51;102230.56;;;5.54;65.20
80837;BME280;70251;60.008;30.404;2024-03-02T01:11:17;102236.59;;;5.58;65.22
80837;BME280;70251;60.008;30.404;2024-03-02T01:13:46;102240.94;;;5.59;65.08
80837;BME280;70251;60.008;30.404;2024-03-02T01:16:12;102243.59;;;5.59;64.73
80837;BME280;70251;60.008;30.404;2024-03-02T01:18:37;102241.75;;;5.61;65.10
80837;BME280;70251;60.008;30.404;2024-03-02T01:21:12;102244.28;;;5.64;65.27
80837;BME280;70251;60.008;30.404;2024-03-02T01:23:38;102225.06;;;5.59;64.79
80837;BME280;70251;60.008;30.404;2024-03-02T01:26:04;102232.81;;;5.63;64.89
80837;BME280;70251;60.008;30.404;2024-03-02T01:28:30;102225.75;;;5.64;64.91
80837;BME280;70251;60.008;30.404;2024-03-02T01:30:55;102231.69;;;5.69;64.46
80837;BME280;70251;60.008;30.404;2024-03-02T01:33:21;102232.44;;;5.72;64.34
80837;BME280;70251;60.008;30.404;2024-03-02T01:35:47;102234.88;;;5.77;64.73
80837;BME280;70251;60.008;30.404;2024-03-02T01:38:12;102240.19;;;5.77;64.45
80837;BME280;70251;60.008;30.404;2024-03-02T01:40:38;102233.06;;;5.77;64.68
80837;BME280;70251;60.008;30.404;2024-03-02T01:43:05;102229.84;;;5.71;64.17
80837;BME280;70251;60.008;30.404;2024-03-02T01:45:31;102228.72;;;5.76;64.78
80837;BME280;70251;60.008;30.404;2024-03-02T01:48:00;102220.97;;;5.72;65.05
80837;BME280;70251;60.008;30.404;2024-03-02T01:50:31;102227.84;;;5.76;64.25
80837;BME280;70251;60.008;30.404;2024-03-02T01:52:57;102216.66;;;5.69;65.09
80837;BME280;70251;60.008;30.404;2024-03-02T01:55:23;102213.97;;;5.71;64.99
80837;BME280;70251;60.008;30.404;2024-03-02T01:57:49;102202.72;;;5.66;64.74
80837;BME280;70251;60.008;30.404;2024-03-02T02:00:20;102195.31;;;5.54;64.85
80837;BME280;70251;60.008;30.404;2024-03-02T02:02:49;102210.06;;;5.59;64.70
80837;BME280;70251;60.008;30.404;2024-03-02T02:05:15;102223.22;;;5.61;65.16
80837;BME280;70251;60.008;30.404;2024-03-02T02:07:41;102217.22;;;5.57;64.72
80837;BME280;70251;60.008;30.404;2024-03-02T02:10:09;102231.16;;;5.61;64.99
80837;BME280;70251;60.008;30.404;2024-03-02T02:12:35;102226.81;;;5.60;65.13
80837;BME280;70251;60.008;30.404;2024-03-02T02:15:01;102227.72;;;5.59;65.38
80837;BME280;70251;60.008;30.404;2024-03-02T02:17:30;102232.16;;;5.58;64.92
80837;BME280;70251;60.008;30.404;2024-03-02T02:19:56;102230.63;;;5.53;65.08
80837;BME280;70251;60.008;30.404;2024-03-02T02:22:21;102231.63;;;5.50;64.53
80837;BME280;70251;60.008;30.404;2024-03-02T02:24:47;102235.25;;;5.47;64.78
80837;BME280;70251;60.008;30.404;2024-03-02T02:27:13;102231.63;;;5.50;64.69
80837;BME280;70251;60.008;30.404;2024-03-02T02:29:59;102239.47;;;5.51;65.26
80837;BME280;70251;60.008;30.404;2024-03-02T02:32:26;102242.13;;;5.51;65.17
80837;BME280;70251;60.008;30.404;2024-03-02T02:34:52;102236.78;;;5.53;64.60
80837;BME280;70251;60.008;30.404;2024-03-02T02:37:18;102236.84;;;5.51;64.76
80837;BME280;70251;60.008;30.404;2024-03-02T02:39:44;102241.91;;;5.58;64.87
80837;BME280;70251;60.008;30.404;2024-03-02T02:42:12;102236.66;;;5.56;65.28
80837;BME280;70251;60.008;30.404;2024-03-02T02:44:38;102247.31;;;5.55;65.19
80837;BME280;70251;60.008;30.404;2024-03-02T02:47:03;102242.00;;;5.55;65.23
80837;BME280;70251;60.008;30.404;2024-03-02T02:52:22;102252.22;;;5.64;64.34
80837;BME280;70251;60.008;30.404;2024-03-02T02:54:51;102249.56;;;5.64;65.17
80837;BME280;70251;60.008;30.404;2024-03-02T02:57:17;102246.13;;;5.62;64.57
80837;BME280;70251;60.008;30.404;2024-03-02T02:59:43;102250.56;;;5.61;64.59
80837;BME280;70251;60.008;30.404;2024-03-02T03:02:09;102247.00;;;5.62;64.63
80837;BME280;70251;60.008;30.404;2024-03-02T03:04:34;102246.13;;;5.62;64.85
80837;BME280;70251;60.008;30.404;2024-03-02T03:07:00;102234.75;;;5.60;65.21
80837;BME280;70251;60.008;30.404;2024-03-02T03:09:26;102230.19;;;5.63;64.86
80837;BME280;70251;60.008;30.404;2024-03-02T03:11:52;102238.03;;;5.65;64.91
80837;BME280;70251;60.008;30.404;2024-03-02T03:14:18;102239.69;;;5.67;64.51
80837;BME280;70251;60.008;30.404;2024-03-02T03:16:45;102237.84;;;5.69;65.22
80837;BME280;70251;60.008;30.404;2024-03-02T03:19:29;102238.72;;;5.70;64.82
80837;BME280;70251;60.008;30.404;2024-03-02T03:21:55;102236.97;;;5.69;64.57
80837;BME280;70251;60.008;30.404;2024-03-02T03:24:21;102243.13;;;5.69;65.01
80837;BME280;70251;60.008;30.404;2024-03-02T03:26:46;102225.56;;;5.68;65.11
80837;BME280;70251;60.008;30.404;2024-03-02T03:29:12;102233.53;;;5.67;65.31
80837;BME280;70251;60.008;30.404;2024-03-02T03:31:37;102232.63;;;5.68;65.15
80837;BME280;70251;60.008;30.404;2024-03-02T03:34:03;102233.41;;;5.70;65.04
80837;BME280;70251;60.008;30.404;2024-03-02T03:36:29;102217.53;;;5.70;64.42
80837;BME280;70251;60.008;30.404;2024-03-02T03:38:54;102219.38;;;5.68;65.28
80837;BME280;70251;60.008;30.404;2024-03-02T03:41:20;102220.09;;;5.71;65.33
80837;BME280;70251;60.008;30.404;2024-03-02T03:43:46;102231.56;;;5.72;65.07
80837;BME280;70251;60.008;30.404;2024-03-02T03:46:11;102228.91;;;5.72;65.31
80837;BME280;70251;60.008;30.404;2024-03-02T03:48:37;102231.56;;;5.72;64.94
80837;BME280;70251;60.008;30.404;2024-03-02T03:51:02;102222.03;;;5.68;64.81
80837;BME280;70251;60.008;30.404;2024-03-02T03:53:28;102221.09;;;5.69;65.18
80837;BME280;70251;60.008;30.404;2024-03-02T03:55:54;102223.69;;;5.70;64.66
80837;BME280;70251;60.008;30.404;2024-03-02T03:58:19;102222.91;;;5.68;64.92
80837;BME280;70251;60.008;30.404;2024-03-02T04:00:46;102219.38;;;5.68;64.71
80837;BME280;70251;60.008;30.404;2024-03-02T04:03:11;102216.81;;;5.66;64.70
80837;BME280;70251;60.008;30.404;2024-03-02T04:05:37;102228.91;;;5.72;65.34
80837;BME280;70251;60.008;30.404;2024-03-02T04:08:04;102221.84;;;5.72;65.03
80837;BME280;70251;60.008;30.404;2024-03-02T04:10:38;102219.13;;;5.74;64.67
80837;BME280;70251;60.008;30.404;2024-03-02T04:13:05;102214.78;;;5.73;64.83
80837;BME280;70251;60.008;30.404;2024-03-02T04:15:31;102220.69;;;5.78;64.85
80837;BME280;70251;60.008;30.404;2024-03-02T04:17:57;102217.34;;;5.74;65.01
80837;BME280;70251;60.008;30.404;2024-03-02T04:20:25;102219.63;;;5.82;65.25
80837;BME280;70251;60.008;30.404;2024-03-02T04:22:51;102214.41;;;5.80;65.13
80837;BME280;70251;60.008;30.404;2024-03-02T04:25:17;102218.72;;;5.83;65.07
80837;BME280;70251;60.008;30.404;2024-03-02T04:27:43;102226.66;;;5.83;64.65
80837;BME280;70251;60.008;30.404;2024-03-02T04:30:10;102217.84;;;5.82;65.42
80837;BME280;70251;60.008;30.404;2024-03-02T04:32:35;102224.03;;;5.83;64.70
80837;BME280;70251;60.008;30.404;2024-03-02T04:35:01;102217.00;;;5.82;64.71
80837;BME280;70251;60.008;30.404;2024-03-02T04:37:28;102223.91;;;5.86;65.95
80837;BME280;70251;60.008;30.404;2024-03-02T04:39:54;102231.53;;;5.93;64.85
80837;BME280;70251;60.008;30.404;2024-03-02T04:42:20;102220.84;;;5.95;65.20
80837;BME280;70251;60.008;30.404;2024-03-02T04:44:46;102229.25;;;6.04;64.66
80837;BME280;70251;60.008;30.404;2024-03-02T04:47:11;102217.72;;;6.05;64.91
80837;BME280;70251;60.008;30.404;2024-03-02T04:49:37;102217.66;;;6.07;64.49
80837;BME280;70251;60.008;30.404;2024-03-02T04:52:03;102217.59;;;6.08;65.04
80837;BME280;70251;60.008;30.404;2024-03-02T04:54:29;102217.81;;;6.04;64.67
80837;BME280;70251;60.008;30.404;2024-03-02T04:56:55;102222.22;;;6.03;64.52
80837;BME280;70251;60.008;30.404;2024-03-02T04:59:20;102223.88;;;6.06;64.57
80837;BME280;70251;60.008;30.404;2024-03-02T05:01:46;102230.06;;;6.06;64.78
80837;BME280;70251;60.008;30.404;2024-03-02T05:04:12;102229.09;;;6.07;64.67
80837;BME280;70251;60.008;30.404;2024-03-02T05:06:39;102229.25;;;6.04;64.26
80837;BME280;70251;60.008;30.404;2024-03-02T05:09:11;102224.81;;;6.05;64.89
80837;BME280;70251;60.008;30.404;2024-03-02T05:11:36;102225.66;;;6.05;64.55
80837;BME280;70251;60.008;30.404;2024-03-02T05:14:06;102228.41;;;6.04;65.00
80837;BME280;70251;60.008;30.404;2024-03-02T05:16:35;102226.53;;;6.06;64.88
80837;BME280;70251;60.008;30.404;2024-03-02T05:19:04;102235.97;;;6.11;64.89
80837;BME280;70251;60.008;30.404;2024-03-02T05:21:33;102235.28;;;6.08;64.24
80837;BME280;70251;60.008;30.404;2024-03-02T05:23:59;102231.72;;;6.09;64.49
80837;BME280;70251;60.008;30.404;2024-03-02T05:26:25;102235.28;;;6.08;64.49
80837;BME280;70251;60.008;30.404;2024-03-02T05:28:51;102240.28;;;6.14;64.77
80837;BME280;70251;60.008;30.404;2024-03-02T05:31:16;102225.38;;;6.11;64.60
80837;BME280;70251;60.008;30.404;2024-03-02T05:33:43;102240.28;;;6.14;64.56
80837;BME280;70251;60.008;30.404;2024-03-02T05:36:09;102229.84;;;6.11;64.23
80837;BME280;70251;60.008;30.404;2024-03-02T05:38:35;102229.84;;;6.11;64.36
80837;BME280;70251;60.008;30.404;2024-03-02T05:41:01;102238.59;;;6.13;64.50
80837;BME280;70251;60.008;30.404;2024-03-02T05:43:30;102229.91;;;6.09;64.73
80837;BME280;70251;60.008;30.404;2024-03-02T05:45:56;102227.59;;;6.02;65.08
80837;BME280;70251;60.008;30.404;2024-03-02T05:48:27;102232.91;;;6.02;64.76
80837;BME280;70251;60.008;30.404;2024-03-02T05:50:52;102240.06;;;6.00;64.87
80837;BME280;70251;60.008;30.404;2024-03-02T05:53:18;102227.59;;;6.02;64.68
80837;BME280;70251;60.008;30.404;2024-03-02T05:55:44;102231.97;;;6.03;64.71
80837;BME280;70251;60.008;30.404;2024-03-02T05:58:10;102239.88;;;6.04;64.89
80837;BME280;70251;60.008;30.404;2024-03-02T06:00:54;102239.56;;;6.10;65.14
80837;BME280;70251;60.008;30.404;2024-03-02T06:03:39;102239.56;;;6.10;65.23
80837;BME280;70251;60.008;30.404;2024-03-02T06:06:05;102241.63;;;6.04;64.49
80837;BME280;70251;60.008;30.404;2024-03-02T06:08:31;102231.16;;;6.01;64.76
80837;BME280;70251;60.008;30.404;2024-03-02T06:10:57;102237.72;;;5.92;64.64
80837;BME280;70251;60.008;30.404;2024-03-02T06:13:23;102233.31;;;5.93;64.88
80837;BME280;70251;60.008;30.404;2024-03-02T06:15:50;102232.50;;;5.91;64.86
80837;BME280;70251;60.008;30.404;2024-03-02T06:18:16;102239.75;;;5.87;64.86
80837;BME280;70251;60.008;30.404;2024-03-02T06:20:42;102244.28;;;5.84;65.17
80837;BME280;70251;60.008;30.404;2024-03-02T06:23:08;102241.88;;;5.78;64.51
80837;BME280;70251;60.008;30.404;2024-03-02T06:25:33;102238.31;;;5.79;65.26
80837;BME280;70251;60.008;30.404;2024-03-02T06:27:59;102229.50;;;5.78;65.47
80837;BME280;70251;60.008;30.404;2024-03-02T06:30:28;102238.31;;;5.79;65.37
80837;BME280;70251;60.008;30.404;2024-03-02T06:33:00;102236.66;;;5.76;64.98
80837;BME280;70251;60.008;30.404;2024-03-02T06:35:36;102244.72;;;5.73;65.55
80837;BME280;70251;60.008;30.404;2024-03-02T06:38:02;102242.53;;;5.63;65.52
80837;BME280;70251;60.008;30.404;2024-03-02T06:40:27;102247.13;;;5.59;65.25
80837;BME280;70251;60.008;30.404;2024-03-02T06:42:53;102246.41;;;5.56;65.20
80837;BME280;70251;60.008;30.404;2024-03-02T06:45:24;102249.09;;;5.54;65.78
80837;BME280;70251;60.008;30.404;2024-03-02T06:47:50;102254.06;;;5.62;65.59
80837;BME280;70251;60.008;30.404;2024-03-02T06:50:15;102253.00;;;5.66;65.43
80837;BME280;70251;60.008;30.404;2024-03-02T06:52:41;102250.19;;;5.70;66.09
80837;BME280;70251;60.008;30.404;2024-03-02T06:55:07;102254.34;;;5.76;65.36
80837;BME280;70251;60.008;30.404;2024-03-02T06:57:33;102257.56;;;5.82;65.78
80837;BME280;70251;60.008;30.404;2024-03-02T06:59:58;102252.34;;;5.81;65.56
80837;BME280;70251;60.008;30.404;2024-03-02T07:02:43;102250.69;;;5.78;64.94
80837;BME280;70251;60.008;30.404;2024-03-02T07:05:13;102256.06;;;5.77;65.19
80837;BME280;70251;60.008;30.404;2024-03-02T07:07:39;102251.69;;;5.76;65.85
80837;BME280;70251;60.008;30.404;2024-03-02T07:10:05;102247.06;;;5.81;65.28
80837;BME280;70251;60.008;30.404;2024-03-02T07:12:33;102244.44;;;5.79;65.60
80837;BME280;70251;60.008;30.404;2024-03-02T07:14:58;102240.19;;;5.77;65.49
80837;BME280;70251;60.008;30.404;2024-03-02T07:17:43;102247.81;;;5.84;64.97
80837;BME280;70251;60.008;30.404;2024-03-02T07:20:23;102260.00;;;5.88;65.64
80837;BME280;70251;60.008;30.404;2024-03-02T07:23:09;102249.59;;;5.84;65.63
80837;BME280;70251;60.008;30.404;2024-03-02T07:25:45;102238.75;;;5.90;65.20
80837;BME280;70251;60.008;30.404;2024-03-02T07:28:16;102237.81;;;5.91;65.34
80837;BME280;70251;60.008;30.404;2024-03-02T07:30:42;102251.06;;;5.91;65.29
80837;BME280;70251;60.008;30.404;2024-03-02T07:33:08;102235.34;;;5.86;64.94
80837;BME280;70251;60.008;30.404;2024-03-02T07:35:39;102246.63;;;5.91;65.03
80837;BME280;70251;60.008;30.404;2024-03-02T07:38:05;102251.84;;;5.93;65.06
80837;BME280;70251;60.008;30.404;2024-03-02T07:40:33;102239.91;;;5.83;65.89
80837;BME280;70251;60.008;30.404;2024-03-02T07:45:47;102238.69;;;5.91;65.61
80837;BME280;70251;60.008;30.404;2024-03-02T07:48:16;102242.72;;;6.00;65.07
80837;BME280;70251;60.008;30.404;2024-03-02T07:50:42;102246.00;;;6.05;65.13
80837;BME280;70251;60.008;30.404;2024-03-02T07:53:08;102256.47;;;6.08;64.89
80837;BME280;70251;60.008;30.404;2024-03-02T07:55:34;102250.50;;;6.03;65.41
80837;BME280;70251;60.008;30.404;2024-03-02T08:00:49;102248.59;;;6.06;64.93
80837;BME280;70251;60.008;30.404;2024-03-02T08:03:15;102242.84;;;5.97;65.06
80837;BME280;70251;60.008;30.404;2024-03-02T08:05:41;102249.34;;;5.90;65.46
80837;BME280;70251;60.008;30.404;2024-03-02T08:08:07;102236.47;;;5.81;65.23
80837;BME280;70251;60.008;30.404;2024-03-02T08:10:33;102257.41;;;5.87;65.32
80837;BME280;70251;60.008;30.404;2024-03-02T08:12:59;102250.13;;;5.92;65.23
80837;BME280;70251;60.008;30.404;2024-03-02T08:15:44;102247.72;;;6.06;65.12
80837;BME280;70251;60.008;30.404;2024-03-02T08:18:09;102247.72;;;6.06;65.68
80837;BME280;70251;60.008;30.404;2024-03-02T08:20:35;102229.31;;;5.83;65.05
80837;BME280;70251;60.008;30.404;2024-03-02T08:23:01;102249.19;;;5.93;65.44
80837;BME280;70251;60.008;30.404;2024-03-02T08:25:35;102254.75;;;5.87;65.40
80837;BME280;70251;60.008;30.404;2024-03-02T08:28:03;102248.53;;;5.88;65.37
80837;BME280;70251;60.008;30.404;2024-03-02T08:30:30;102245.09;;;5.86;65.11
80837;BME280;70251;60.008;30.404;2024-03-02T08:32:56;102247.63;;;5.89;65.98
80837;BME280;70251;60.008;30.404;2024-03-02T08:35:27;102251.72;;;5.96;65.86
80837;BME280;70251;60.008;30.404;2024-03-02T08:37:53;102260.03;;;6.07;65.55
80837;BME280;70251;60.008;30.404;2024-03-02T08:40:19;102259.47;;;6.00;64.97
80837;BME280;70251;60.008;30.404;2024-03-02T08:42:45;102250.19;;;5.90;65.92
80837;BME280;70251;60.008;30.404;2024-03-02T08:45:11;102255.16;;;5.98;66.27
80837;BME280;70251;60.008;30.404;2024-03-02T08:47:37;102245.16;;;6.04;65.15
80837;BME280;70251;60.008;30.404;2024-03-02T08:50:04;102253.59;;;5.94;64.95
80837;BME280;70251;60.008;30.404;2024-03-02T08:52:31;102260.84;;;5.89;65.45
80837;BME280;70251;60.008;30.404;2024-03-02T08:55:00;102259.34;;;5.82;65.38
80837;BME280;70251;60.008;30.404;2024-03-02T08:57:25;102249.09;;;5.74;65.58
80837;BME280;70251;60.008;30.404;2024-03-02T09:00:10;102274.28;;;5.84;66.04
80837;BME280;70251;60.008;30.404;2024-03-02T09:02:36;102259.50;;;5.79;65.73
80837;BME280;70251;60.008;30.404;2024-03-02T09:05:06;102258.53;;;5.81;65.67
80837;BME280;70251;60.008;30.404;2024-03-02T09:07:32;102256.34;;;5.71;65.86
80837;BME280;70251;60.008;30.404;2024-03-02T09:10:01;102278.34;;;5.71;66.48
80837;BME280;70251;60.008;30.404;2024-03-02T09:12:27;102260.44;;;5.58;66.03
80837;BME280;70251;60.008;30.404;2024-03-02T09:14:53;102254.34;;;5.56;66.50
80837;BME280;70251;60.008;30.404;2024-03-02T09:17:37;102252.53;;;5.56;66.59
80837;BME280;70251;60.008;30.404;2024-03-02T09:20:22;102270.88;;;5.61;66.12
80837;BME280;70251;60.008;30.404;2024-03-02T09:22:48;102264.31;;;5.49;66.50
80837;BME280;70251;60.008;30.404;2024-03-02T09:25:14;102271.63;;;5.64;66.51
80837;BME280;70251;60.008;30.404;2024-03-02T09:27:42;102266.25;;;5.66;66.64
80837;BME280;70251;60.008;30.404;2024-03-02T09:30:08;102253.31;;;5.58;66.55
80837;BME280;70251;60.008;30.404;2024-03-02T09:32:37;102265.31;;;5.67;66.53
80837;BME280;70251;60.008;30.404;2024-03-02T09:35:04;102253.81;;;5.68;66.53
80837;BME280;70251;60.008;30.404;2024-03-02T09:37:31;102234.28;;;5.70;65.94
80837;BME280;70251;60.008;30.404;2024-03-02T09:39:57;102256.66;;;5.83;66.15
80837;BME280;70251;60.008;30.404;2024-03-02T09:42:27;102252.13;;;5.87;66.46
80837;BME280;70251;60.008;30.404;2024-03-02T09:45:01;102251.56;;;5.99;66.20
80837;BME280;70251;60.008;30.404;2024-03-02T09:47:29;102249.34;;;5.90;66.17
80837;BME280;70251;60.008;30.404;2024-03-02T09:49:54;102257.06;;;5.94;66.35
80837;BME280;70251;60.008;30.404;2024-03-02T09:52:22;102254.22;;;5.99;66.09
80837;BME280;70251;60.008;30.404;2024-03-02T09:54:58;102263.34;;;6.12;66.77
80837;BME280;70251;60.008;30.404;2024-03-02T09:57:32;102251.25;;;6.06;66.55
80837;BME280;70251;60.008;30.404;2024-03-02T10:00:00;102245.38;;;6.18;66.55
80837;BME280;70251;60.008;30.404;2024-03-02T10:02:37;102237.38;;;6.20;66.00
80837;BME280;70251;60.008;30.404;2024-03-02T10:05:31;102238.44;;;6.16;65.25
80837;BME280;70251;60.008;30.404;2024-03-02T10:08:02;102256.78;;;6.20;65.86
80837;BME280;70251;60.008;30.404;2024-03-02T10:10:36;102258.44;;;6.23;65.52
80837;BME280;70251;60.008;30.404;2024-03-02T10:13:24;102249.00;;;6.36;65.89
80837;BME280;70251;60.008;30.404;2024-03-02T10:15:50;102247.84;;;6.42;65.93
80837;BME280;70251;60.008;30.404;2024-03-02T10:18:26;102256.03;;;6.56;65.37
80837;BME280;70251;60.008;30.404;2024-03-02T10:20:52;102259.09;;;6.65;65.41
80837;BME280;70251;60.008;30.404;2024-03-02T10:23:18;102237.19;;;6.62;65.29
80837;BME280;70251;60.008;30.404;2024-03-02T10:25:53;102252.31;;;6.78;65.40
80837;BME280;70251;60.008;30.404;2024-03-02T10:28:19;102235.91;;;6.70;65.59
80837;BME280;70251;60.008;30.404;2024-03-02T10:30:47;102255.34;;;6.88;65.33
80837;BME280;70251;60.008;30.404;2024-03-02T10:33:17;102230.88;;;6.83;65.11
80837;BME280;70251;60.008;30.404;2024-03-02T10:35:43;102238.91;;;6.81;64.67
80837;BME280;70251;60.008;30.404;2024-03-02T10:38:11;102254.81;;;6.81;64.86
80837;BME280;70251;60.008;30.404;2024-03-02T10:40:52;102226.13;;;6.71;64.86
80837;BME280;70251;60.008;30.404;2024-03-02T10:43:23;102250.72;;;6.74;64.58
80837;BME280;70251;60.008;30.404;2024-03-02T10:45:52;102243.19;;;6.65;64.41
80837;BME280;70251;60.008;30.404;2024-03-02T10:48:20;102226.44;;;6.46;64.65
80837;BME280;70251;60.008;30.404;2024-03-02T10:50:48;102240.34;;;6.51;64.78
80837;BME280;70251;60.008;30.404;2024-03-02T10:53:14;102252.09;;;6.64;65.53
80837;BME280;70251;60.008;30.404;2024-03-02T10:55:40;102248.22;;;6.71;65.07
80837;BME280;70251;60.008;30.404;2024-03-02T10:58:06;102240.41;;;6.68;65.09
80837;BME280;70251;60.008;30.404;2024-03-02T11:00:37;102235.03;;;6.70;64.74
80837;BME280;70251;60.008;30.404;2024-03-02T11:03:07;102248.00;;;6.76;64.62
80837;BME280;70251;60.008;30.404;2024-03-02T11:05:46;102246.13;;;6.78;64.89
80837;BME280;70251;60.008;30.404;2024-03-02T11:08:19;102246.03;;;6.79;64.93
80837;BME280;70251;60.008;30.404;2024-03-02T11:10:50;102241.41;;;6.84;64.55
80837;BME280;70251;60.008;30.404;2024-03-02T11:13:31;102242.97;;;6.88;64.44
80837;BME280;70251;60.008;30.404;2024-03-02T11:16:03;102244.03;;;6.84;64.44
80837;BME280;70251;60.008;30.404;2024-03-02T11:18:32;102215.69;;;6.68;64.20
80837;BME280;70251;60.008;30.404;2024-03-02T11:21:02;102246.03;;;6.79;64.64
80837;BME280;70251;60.008;30.404;2024-03-02T11:23:32;102246.63;;;6.86;64.22
80837;BME280;70251;60.008;30.404;2024-03-02T11:26:18;102240.41;;;6.87;64.64
80837;BME280;70251;60.008;30.404;2024-03-02T11:28:44;102227.00;;;6.71;64.29
80837;BME280;70251;60.008;30.404;2024-03-02T11:31:11;102240.53;;;6.84;64.40
80837;BME280;70251;60.008;30.404;2024-03-02T11:33:37;102240.31;;;6.88;64.46
80837;BME280;70251;60.008;30.404;2024-03-02T11:36:03;102255.50;;;7.03;64.37
80837;BME280;70251;60.008;30.404;2024-03-02T11:38:31;102225.81;;;6.95;63.89
80837;BME280;70251;60.008;30.404;2024-03-02T11:40:59;102251.91;;;7.04;64.11
80837;BME280;70251;60.008;30.404;2024-03-02T11:43:27;102237.13;;;6.99;64.12
80837;BME280;70251;60.008;30.404;2024-03-02T11:46:00;102250.97;;;7.05;63.84
80837;BME280;70251;60.008;30.404;2024-03-02T11:48:26;102246.88;;;6.98;64.20
80837;BME280;70251;60.008;30.404;2024-03-02T11:50:52;102250.97;;;7.05;64.22
80837;BME280;70251;60.008;30.404;2024-03-02T11:53:19;102248.47;;;7.02;63.67
80837;BME280;70251;60.008;30.404;2024-03-02T11:55:45;102253.94;;;6.99;63.80
80837;BME280;70251;60.008;30.404;2024-03-02T11:58:17;102244.09;;;7.01;63.86
80837;BME280;70251;60.008;30.404;2024-03-02T12:00:43;102248.09;;;7.10;64.01
80837;BME280;70251;60.008;30.404;2024-03-02T12:03:12;102252.88;;;7.21;63.78
80837;BME280;70251;60.008;30.404;2024-03-02T12:05:38;102241.09;;;7.26;63.23
80837;BME280;70251;60.008;30.404;2024-03-02T12:08:06;102249.91;;;7.27;63.80
80837;BME280;70251;60.008;30.404;2024-03-02T12:10:36;102240.88;;;7.31;63.58
80837;BME280;70251;60.008;30.404;2024-03-02T12:13:06;102244.16;;;7.36;63.49
80837;BME280;70251;60.008;30.404;2024-03-02T12:15:35;102243.50;;;7.31;62.97
80837;BME280;70251;60.008;30.404;2024-03-02T12:18:04;102243.50;;;7.31;63.37
80837;BME280;70251;60.008;30.404;2024-03-02T12:20:33;102242.81;;;7.27;63.39
80837;BME280;70251;60.008;30.404;2024-03-02T12:23:02;102233.38;;;7.22;63.22
80837;BME280;70251;60.008;30.404;2024-03-02T12:25:28;102230.63;;;7.23;63.21
80837;BME280;70251;60.008;30.404;2024-03-02T12:28:00;102242.91;;;7.26;63.25
80837;BME280;70251;60.008;30.404;2024-03-02T12:30:30;102234.94;;;7.26;62.74
80837;BME280;70251;60.008;30.404;2024-03-02T12:32:59;102216.91;;;7.15;62.70
80837;BME280;70251;60.008;30.404;2024-03-02T12:35:25;102224.53;;;7.04;62.90
80837;BME280;70251;60.008;30.404;2024-03-02T12:37:53;102228.47;;;6.95;62.53
80837;BME280;70251;60.008;30.404;2024-03-02T12:40:22;102223.41;;;6.91;62.49
80837;BME280;70251;60.008;30.404;2024-03-02T12:43:06;102224.75;;;6.99;63.35
80837;BME280;70251;60.008;30.404;2024-03-02T12:45:34;102229.41;;;6.94;62.90
80837;BME280;70251;60.008;30.404;2024-03-02T12:48:00;102230.59;;;7.06;63.14
80837;BME280;70251;60.008;30.404;2024-03-02T12:50:27;102240.91;;;7.12;62.92
80837;BME280;70251;60.008;30.404;2024-03-02T12:52:53;102227.03;;;7.24;63.13
80837;BME280;70251;60.008;30.404;2024-03-02T12:55:20;102231.34;;;7.27;62.51
80837;BME280;70251;60.008;30.404;2024-03-02T12:57:47;102231.34;;;7.27;62.59
80837;BME280;70251;60.008;30.404;2024-03-02T13:00:13;102228.47;;;7.31;62.43
80837;BME280;70251;60.008;30.404;2024-03-02T13:02:42;102221.28;;;7.33;62.64
80837;BME280;70251;60.008;30.404;2024-03-02T13:05:08;102211.44;;;7.35;62.35
80837;BME280;70251;60.008;30.404;2024-03-02T13:07:38;102218.84;;;7.29;61.82